Time;durP1;ratioP1;P1;durP2;ratioP2;P2;SDS_P1;SDS_P2;PMS_P1;PMS_P2;Temp;Humidity;BMP_temperature;BMP_pressure;BME280_temperature;BME280_humidity;BME280_pressure;Samples;Min_cycle;Max_cycle;Signal;HPM_P1;HPM_P2
2023/11/05 00:01:20;;;;;;;;;3.25;1.00;;;;;13.27;88.61;96710.53;5066042;28;46409;-61
2023/11/05 00:03:45;;;;;;;;;2.00;2.00;;;;;13.21;88.52;96703.97;5066453;27;45319;-61
2023/11/05 00:06:11;;;;;;;;;0.50;0.00;;;;;13.21;88.16;96703.13;5065982;28;45289;-61
2023/11/05 00:08:37;;;;;;;;;1.25;1.00;;;;;13.27;88.76;96710.53;5066257;27;45336;-61
2023/11/05 00:11:03;;;;;;;;;2.00;1.00;;;;;13.23;88.79;96709.16;5065880;28;45941;-61
2023/11/05 00:13:29;;;;;;;;;1.75;0.00;;;;;13.24;88.56;96695.59;5065992;27;45336;-61
2023/11/05 00:15:54;;;;;;;;;1.00;1.00;;;;;13.25;88.63;96707.19;5059947;28;45377;-61
2023/11/05 00:18:20;;;;;;;;;1.00;1.00;;;;;13.26;88.87;96701.63;5059809;28;45426;-61
2023/11/05 00:20:46;;;;;;;;;3.75;1.00;;;;;13.20;88.98;96680.88;5059694;28;45419;-61
2023/11/05 00:23:11;;;;;;;;;1.00;0.75;;;;;13.26;88.98;96693.59;5059623;28;45295;-61
2023/11/05 00:25:37;;;;;;;;;0.00;0.00;;;;;13.19;89.18;96684.56;5059819;28;45288;-61
2023/11/05 00:28:03;;;;;;;;;1.00;0.00;;;;;13.13;89.17;96666.47;5059769;28;45318;-61
2023/11/05 00:30:28;;;;;;;;;1.00;1.00;;;;;13.28;89.38;96685.41;5059463;28;45268;-61
2023/11/05 00:32:54;;;;;;;;;1.00;1.00;;;;;13.23;89.35;96679.72;5059627;28;45386;-61
2023/11/05 00:35:19;;;;;;;;;2.25;0.00;;;;;13.24;89.20;96681.38;5059619;28;45303;-61
2023/11/05 00:37:44;;;;;;;;;1.75;1.50;;;;;13.20;89.56;96672.84;5059087;28;63068;-61
2023/11/05 00:40:10;;;;;;;;;3.00;0.00;;;;;13.28;89.31;96672.88;5058497;28;66897;-61
2023/11/05 00:42:35;;;;;;;;;1.00;1.00;;;;;13.16;89.46;96663.47;5062000;28;45306;-61
2023/11/05 00:45:01;;;;;;;;;0.50;0.00;;;;;13.27;89.63;96678.38;5059979;28;45318;-61
2023/11/05 00:47:26;;;;;;;;;1.00;1.00;;;;;13.23;89.46;96666.31;5062437;28;45557;-61
2023/11/05 00:49:51;;;;;;;;;2.00;0.00;;;;;13.24;89.66;96676.03;5078862;28;55368;-61
2023/11/05 00:52:16;;;;;;;;;2.75;0.00;;;;;13.08;89.26;96650.06;5079708;27;45420;-61
2023/11/05 00:54:42;;;;;;;;;0.00;0.00;;;;;13.11;89.10;96647.06;5078566;28;64980;-61
2023/11/05 00:57:07;;;;;;;;;0.25;0.25;;;;;13.20;89.24;96678.22;5079621;27;45569;-61
2023/11/05 00:59:33;;;;;;;;;1.25;0.75;;;;;13.14;89.33;96660.13;5079301;27;45385;-61
2023/11/05 01:01:58;;;;;;;;;0.75;0.00;;;;;13.19;89.58;96673.03;5079475;27;46513;-61
2023/11/05 01:04:23;;;;;;;;;0.75;0.00;;;;;13.23;89.76;96666.31;5079669;27;45587;-61
2023/11/05 01:06:48;;;;;;;;;3.00;0.00;;;;;13.18;90.08;96656.13;5079170;27;45587;-61
2023/11/05 01:09:14;;;;;;;;;1.00;0.00;;;;;13.22;89.88;96665.50;5078266;28;64621;-61
2023/11/05 01:11:40;;;;;;;;;0.00;0.00;;;;;13.23;90.21;96674.34;5079050;28;45332;-61
2023/11/05 01:14:06;;;;;;;;;4.00;1.75;;;;;13.18;90.12;96657.94;5079232;27;45357;-61
2023/11/05 01:16:31;;;;;;;;;3.00;0.00;;;;;13.17;90.03;96654.44;5079237;27;45583;-61
2023/11/05 01:18:56;;;;;;;;;2.00;1.00;;;;;13.24;90.09;96666.16;5058957;28;48093;-61
2023/11/05 01:21:22;;;;;;;;;2.00;0.25;;;;;13.25;90.26;96675.88;5069533;28;45317;-61
2023/11/05 01:23:47;;;;;;;;;1.00;1.00;;;;;13.23;90.36;96655.59;5079004;27;45973;-61
2023/11/05 01:26:12;;;;;;;;;2.00;0.00;;;;;13.22;90.54;96667.34;5079388;27;45409;-61
2023/11/05 01:28:38;;;;;;;;;2.25;0.00;;;;;13.15;90.43;96667.16;5078985;27;46245;-61
2023/11/05 01:31:04;;;;;;;;;3.00;0.50;;;;;13.22;90.35;96676.19;5079117;27;45988;-61
2023/11/05 01:33:29;;;;;;;;;1.00;0.00;;;;;13.13;90.55;96678.03;5065638;27;45591;-61
2023/11/05 01:35:54;;;;;;;;;0.00;0.00;;;;;13.13;90.87;96669.16;5078882;28;46877;-61
2023/11/05 01:38:20;;;;;;;;;2.00;0.00;;;;;13.10;90.71;96678.38;5078880;28;45300;-61
2023/11/05 01:40:45;;;;;;;;;0.25;0.00;;;;;13.10;90.91;96688.25;5065269;28;45416;-61
2023/11/05 01:43:10;;;;;;;;;0.00;0.00;;;;;13.14;90.68;96694.94;5072487;28;45264;-61
2023/11/05 01:45:36;;;;;;;;;1.00;0.00;;;;;13.10;90.53;96688.25;5068623;28;60359;-61
2023/11/05 01:48:01;;;;;;;;;0.00;0.00;;;;;13.07;90.46;96684.03;5060105;27;45478;-61
2023/11/05 01:50:27;;;;;;;;;0.00;0.00;;;;;13.03;90.70;96690.75;5058798;28;45417;-61
2023/11/05 01:52:55;;;;;;;;;1.75;0.50;;;;;13.09;90.75;96702.63;5058360;28;49003;-61
2023/11/05 01:55:25;;;;;;;;;0.00;0.00;;;;;12.97;90.79;96686.03;5058249;28;45442;-61
2023/11/05 01:57:52;;;;;;;;;3.00;0.00;;;;;13.06;90.77;96709.13;5058420;28;45336;-61
2023/11/05 02:00:18;;;;;;;;;2.50;0.00;;;;;13.04;90.74;96710.31;5058575;28;45562;-61
2023/11/05 02:02:44;;;;;;;;;1.00;0.75;;;;;13.05;90.44;96715.50;5058502;28;45344;-61
2023/11/05 02:05:09;;;;;;;;;0.25;0.25;;;;;13.08;90.39;96725.03;5058415;28;45481;-61
2023/11/05 02:07:35;;;;;;;;;0.00;0.00;;;;;13.03;90.29;96717.50;5058026;28;46194;-61
2023/11/05 02:10:02;;;;;;;;;0.00;0.00;;;;;13.08;90.18;96741.09;5058297;28;45506;-61
2023/11/05 02:12:28;;;;;;;;;0.00;0.00;;;;;13.00;90.04;96754.44;5058448;28;45559;-61
2023/11/05 02:14:54;;;;;;;;;0.00;0.00;;;;;13.00;89.92;96757.13;5058165;28;45295;-61
2023/11/05 02:17:20;;;;;;;;;0.00;0.00;;;;;13.04;89.96;96763.84;5058222;28;45482;-61
2023/11/05 02:19:46;;;;;;;;;0.00;0.00;;;;;13.02;89.75;96766.69;5058230;28;45280;-61
2023/11/05 02:22:14;;;;;;;;;1.00;0.00;;;;;13.02;89.96;96773.88;5077356;28;45378;-61
2023/11/05 02:24:44;;;;;;;;;0.25;0.00;;;;;13.00;89.61;96783.91;5068601;27;45385;-61
2023/11/05 02:27:10;;;;;;;;;0.00;0.00;;;;;12.98;89.57;96792.13;5068567;28;46793;-61
2023/11/05 02:29:35;;;;;;;;;0.00;0.00;;;;;12.87;89.18;96769.13;5066770;28;45346;-61
2023/11/05 02:32:03;;;;;;;;;1.75;0.00;;;;;12.90;89.28;96776.03;5075073;28;58648;-61
2023/11/05 02:34:29;;;;;;;;;0.25;0.00;;;;;12.98;89.43;96808.19;5074867;28;45588;-61
2023/11/05 02:36:54;;;;;;;;;0.00;0.00;;;;;12.89;88.75;96787.72;5081508;27;45405;-61
2023/11/05 02:39:20;;;;;;;;;0.00;0.00;;;;;12.90;88.90;96808.13;5080894;28;62880;-61
2023/11/05 02:41:45;;;;;;;;;0.00;0.00;;;;;12.96;88.93;96813.69;5060528;28;45517;-61
2023/11/05 02:44:11;;;;;;;;;1.75;0.00;;;;;12.97;88.98;96815.34;5063442;28;55307;-61
2023/11/05 02:46:36;;;;;;;;;0.50;0.00;;;;;12.98;88.86;96816.22;5065326;28;46219;-61
2023/11/05 02:49:02;;;;;;;;;0.00;0.00;;;;;12.96;89.01;96816.38;5061256;28;49000;-61
2023/11/05 02:51:27;;;;;;;;;1.25;0.00;;;;;13.02;89.00;96841.63;5061350;28;45432;-61
2023/11/05 02:53:52;;;;;;;;;0.75;0.00;;;;;13.02;89.15;96836.28;5060099;28;72619;-61
2023/11/05 02:56:17;;;;;;;;;0.00;0.00;;;;;13.02;88.94;96844.31;5060599;28;55607;-61
2023/11/05 02:58:43;;;;;;;;;0.00;0.00;;;;;12.89;89.13;96835.88;5060328;28;65778;-61
2023/11/05 03:01:08;;;;;;;;;3.00;0.00;;;;;13.01;89.08;96858.69;5078917;28;49002;-61
2023/11/05 03:03:33;;;;;;;;;0.00;0.00;;;;;13.00;89.42;96853.50;5079943;28;45317;-61
2023/11/05 03:05:59;;;;;;;;;0.00;0.00;;;;;13.00;89.48;96853.50;5061541;27;52153;-62
2023/11/05 03:08:24;;;;;;;;;0.00;0.00;;;;;13.03;89.50;96861.22;5060804;28;45510;-61
2023/11/05 03:10:49;;;;;;;;;0.00;0.00;;;;;12.97;89.40;96858.19;5078270;28;58577;-61
2023/11/05 03:13:14;;;;;;;;;3.00;0.00;;;;;13.00;89.13;96864.19;5068543;28;58392;-61
2023/11/05 03:15:40;;;;;;;;;0.25;0.00;;;;;13.01;89.41;96869.41;5074047;28;55477;-61
2023/11/05 03:18:05;;;;;;;;;0.00;0.00;;;;;13.07;89.01;96886.69;5060408;28;60893;-61
2023/11/05 03:20:31;;;;;;;;;0.00;0.00;;;;;13.08;88.71;96891.00;5060742;28;45423;-61
2023/11/05 03:22:56;;;;;;;;;0.00;0.00;;;;;13.11;88.67;96904.94;5060326;28;60318;-61
2023/11/05 03:25:22;;;;;;;;;0.25;0.00;;;;;13.02;88.58;96883.66;5060287;28;47168;-61
2023/11/05 03:27:47;;;;;;;;;0.75;0.00;;;;;13.04;88.77;96897.69;5060796;28;45642;-61
2023/11/05 03:30:13;;;;;;;;;1.00;0.00;;;;;13.08;88.52;96896.38;5060789;28;45442;-61
2023/11/05 03:32:39;;;;;;;;;0.75;0.00;;;;;13.11;88.41;96909.44;5060482;28;45409;-61
2023/11/05 03:35:05;;;;;;;;;0.00;0.00;;;;;12.88;88.75;96871.66;5060380;28;45427;-61
2023/11/05 03:37:31;;;;;;;;;0.00;0.00;;;;;13.04;88.65;96903.06;5060701;28;45397;-61
2023/11/05 03:39:56;;;;;;;;;0.50;0.00;;;;;13.12;88.40;96911.97;5060342;28;45636;-61
2023/11/05 03:42:22;;;;;;;;;0.00;0.00;;;;;13.06;88.17;96912.59;5061259;28;45310;-61
2023/11/05 03:44:47;;;;;;;;;0.00;0.00;;;;;13.04;88.62;96914.59;5062517;27;46208;-61
2023/11/05 03:47:12;;;;;;;;;2.75;0.00;;;;;13.00;88.37;96915.06;5063917;28;70284;-61
2023/11/05 03:49:38;;;;;;;;;0.00;0.00;;;;;13.09;88.16;96928.34;5076866;28;45504;-61
2023/11/05 03:52:03;;;;;;;;;0.00;0.00;;;;;13.12;88.42;96938.75;5067240;28;74642;-61
2023/11/05 03:54:29;;;;;;;;;0.00;0.00;;;;;13.12;88.42;96940.59;5077613;28;45243;-61
2023/11/05 03:56:56;;;;;;;;;0.75;0.00;;;;;13.12;88.75;96948.63;5080576;27;45527;-61
2023/11/05 03:59:22;;;;;;;;;1.25;0.00;;;;;13.11;88.42;96950.47;5080647;27;45338;-61
2023/11/05 04:01:48;;;;;;;;;0.00;0.00;;;;;13.01;88.47;96956.91;5068430;28;45513;-61
2023/11/05 04:04:14;;;;;;;;;2.00;0.00;;;;;13.07;88.70;96967.81;5077693;28;46639;-61
2023/11/05 04:06:39;;;;;;;;;0.00;0.00;;;;;13.06;88.92;96981.38;5079605;27;63969;-61
2023/11/05 04:09:04;;;;;;;;;0.75;0.75;;;;;12.97;88.81;96964.41;5079109;28;68474;-62
2023/11/05 04:11:29;;;;;;;;;0.00;0.00;;;;;13.07;88.61;96983.06;5080415;27;45303;-61
2023/11/05 04:13:55;;;;;;;;;0.00;0.00;;;;;12.86;88.58;96959.31;5079148;28;69636;-61
2023/11/05 04:16:20;;;;;;;;;1.00;0.00;;;;;12.97;88.54;96983.16;5079480;28;66215;-61
2023/11/05 04:18:46;;;;;;;;;1.00;0.00;;;;;13.06;88.67;96997.44;5078929;28;45505;-61
2023/11/05 04:21:11;;;;;;;;;0.00;0.00;;;;;13.05;88.31;97004.63;5080142;28;45346;-61
2023/11/05 04:23:36;;;;;;;;;0.00;0.00;;;;;13.03;88.60;97009.31;5079677;27;45394;-61
2023/11/05 04:26:03;;;;;;;;;0.00;0.00;;;;;12.93;88.29;96989.81;5080321;27;45346;-61
2023/11/05 04:28:29;;;;;;;;;0.00;0.00;;;;;13.00;88.11;97008.75;5065120;28;45435;-61
2023/11/05 04:30:54;;;;;;;;;2.00;0.00;;;;;13.05;88.19;97010.00;5080000;27;45593;-61
2023/11/05 04:33:19;;;;;;;;;0.00;0.00;;;;;13.06;88.07;97030.38;5066105;27;45377;-61
2023/11/05 04:35:45;;;;;;;;;0.00;0.00;;;;;13.07;88.15;97025.91;5079880;27;45400;-61
2023/11/05 04:38:10;;;;;;;;;0.00;0.00;;;;;13.07;87.82;97034.75;5078756;28;45402;-62
2023/11/05 04:40:35;;;;;;;;;0.00;0.00;;;;;13.05;88.09;97038.59;5079092;28;66287;-61
2023/11/05 04:43:00;;;;;;;;;2.50;1.00;;;;;13.06;87.77;97040.28;5075278;28;65286;-61
2023/11/05 04:45:26;;;;;;;;;0.00;0.00;;;;;13.04;87.62;97042.28;5058676;28;57889;-61
2023/11/05 04:47:51;;;;;;;;;0.50;0.00;;;;;12.88;87.65;97026.91;5062171;28;58913;-61
2023/11/05 04:50:16;;;;;;;;;1.00;0.00;;;;;13.00;87.96;97055.13;5059431;28;45338;-61
2023/11/05 04:52:42;;;;;;;;;0.00;0.00;;;;;13.01;87.91;97055.97;5059235;28;46544;-61
2023/11/05 04:55:07;;;;;;;;;0.00;0.00;;;;;13.05;87.75;97078.75;5059179;28;45409;-61
2023/11/05 04:57:33;;;;;;;;;0.00;0.00;;;;;13.02;87.71;97065.69;5058117;28;45459;-61
2023/11/05 04:59:58;;;;;;;;;0.00;0.00;;;;;12.93;87.40;97070.97;5058914;28;56088;-61
2023/11/05 05:02:23;;;;;;;;;0.00;0.00;;;;;13.00;87.50;97079.22;5058438;28;66118;-61
2023/11/05 05:04:49;;;;;;;;;0.50;0.00;;;;;13.02;87.54;97095.13;5067486;28;45466;-61
2023/11/05 05:07:14;;;;;;;;;1.50;0.00;;;;;13.04;87.43;97103.84;5063327;27;45309;-61
2023/11/05 05:09:40;;;;;;;;;0.00;0.00;;;;;12.99;87.30;97096.28;5059084;28;45436;-61
2023/11/05 05:12:06;;;;;;;;;2.00;0.00;;;;;13.05;87.18;97113.56;5059133;28;45557;-61
2023/11/05 05:14:31;;;;;;;;;0.00;0.00;;;;;13.01;87.06;97112.19;5067532;28;45560;-61
2023/11/05 05:16:57;;;;;;;;;0.00;0.00;;;;;13.06;87.04;97125.94;5062234;28;56764;-61
2023/11/05 05:19:22;;;;;;;;;1.00;0.00;;;;;13.05;87.29;97130.47;5059146;28;45335;-61
2023/11/05 05:21:47;;;;;;;;;1.00;0.00;;;;;13.04;86.94;97135.97;5057819;28;75450;-61
2023/11/05 05:24:13;;;;;;;;;0.00;0.00;;;;;13.07;86.97;97154.41;5058784;28;45260;-61
2023/11/05 05:26:38;;;;;;;;;0.00;0.00;;;;;13.06;86.86;97144.69;5058996;28;45363;-61
2023/11/05 05:29:04;;;;;;;;;1.50;0.00;;;;;13.06;87.27;97158.06;5058486;28;54784;-61
2023/11/05 05:31:30;;;;;;;;;0.00;0.00;;;;;13.12;86.82;97176.22;5058530;28;47119;-61
2023/11/05 05:33:55;;;;;;;;;0.00;0.00;;;;;13.07;86.95;97175.84;5058929;28;45598;-61
2023/11/05 05:36:21;;;;;;;;;0.00;0.00;;;;;13.06;86.69;97177.66;5058052;28;63859;-61
2023/11/05 05:38:47;;;;;;;;;0.00;0.00;;;;;13.07;86.97;97194.56;5058708;28;45477;-61
2023/11/05 05:41:13;;;;;;;;;0.00;0.00;;;;;13.03;86.68;97187.81;5058706;28;46067;-61
2023/11/05 05:43:38;;;;;;;;;0.00;0.00;;;;;13.07;87.18;97197.25;5061695;28;45537;-61
2023/11/05 05:46:03;;;;;;;;;0.00;0.00;;;;;13.03;86.81;97204.75;5063213;28;45369;-61
2023/11/05 05:48:29;;;;;;;;;0.00;0.00;;;;;13.11;86.35;97225.41;5058736;28;45393;-61
2023/11/05 05:50:54;;;;;;;;;1.00;0.00;;;;;13.11;86.60;97210.19;5058670;28;46278;-61
2023/11/05 05:53:20;;;;;;;;;1.00;0.00;;;;;13.10;86.66;97234.44;5058500;28;45420;-61
2023/11/05 05:55:45;;;;;;;;;0.00;0.00;;;;;13.05;86.49;97226.03;5070723;28;45472;-61
2023/11/05 05:58:10;;;;;;;;;0.00;0.00;;;;;13.08;86.44;97242.63;5061230;28;45529;-61
2023/11/05 06:00:36;;;;;;;;;0.00;0.00;;;;;13.04;86.38;97248.41;5061978;28;45561;-61
2023/11/05 06:03:01;;;;;;;;;0.00;0.00;;;;;13.10;86.55;97261.22;5062120;28;45405;-61
2023/11/05 06:05:27;;;;;;;;;0.00;0.00;;;;;13.15;86.57;97283.03;5073299;28;65792;-61
2023/11/05 06:07:52;;;;;;;;;0.00;0.00;;;;;13.11;86.19;97282.50;5061915;28;45428;-61
2023/11/05 06:10:18;;;;;;;;;0.00;0.00;;;;;13.11;85.71;97289.66;5061695;28;45887;-61
2023/11/05 06:12:43;;;;;;;;;0.00;0.00;;;;;13.18;85.97;97303.28;5061978;28;45308;-61
2023/11/05 06:15:12;;;;;;;;;0.00;0.00;;;;;13.18;85.72;97301.47;5061580;28;45472;-61
2023/11/05 06:17:39;;;;;;;;;1.00;0.00;;;;;13.10;85.68;97290.66;5068448;28;45417;-61
2023/11/05 06:20:05;;;;;;;;;0.00;0.00;;;;;13.12;85.19;97316.28;5066879;27;46461;-63
2023/11/05 06:22:32;;;;;;;;;0.00;0.00;;;;;13.17;85.62;97318.53;5061885;28;45671;-64
2023/11/05 06:24:57;;;;;;;;;0.00;0.00;;;;;13.17;85.21;97329.25;5061517;28;45554;-63
2023/11/05 06:27:22;;;;;;;;;0.00;0.00;;;;;13.14;85.59;97337.56;5061908;28;45315;-64
2023/11/05 06:29:48;;;;;;;;;0.00;0.00;;;;;13.19;85.24;97346.00;5061249;28;46499;-64
2023/11/05 06:32:13;;;;;;;;;1.00;0.00;;;;;13.17;85.28;97353.34;5060912;28;65863;-64
2023/11/05 06:34:38;;;;;;;;;0.00;0.00;;;;;13.21;85.55;97357.38;5061540;28;68393;-64
2023/11/05 06:37:05;;;;;;;;;0.00;0.00;;;;;13.18;85.56;97359.53;5081895;27;45299;-63
2023/11/05 06:39:30;;;;;;;;;0.25;0.00;;;;;13.08;85.37;97352.41;5081451;27;45462;-64
2023/11/05 06:41:57;;;;;;;;;0.50;0.50;;;;;13.14;85.49;97365.19;5081172;27;45315;-64
2023/11/05 06:44:23;;;;;;;;;0.00;0.00;;;;;13.19;85.53;97390.69;5066908;27;45502;-63
2023/11/05 06:46:49;;;;;;;;;0.00;0.00;;;;;13.10;85.36;97381.72;5065513;28;45459;-61
2023/11/05 06:49:14;;;;;;;;;0.75;0.00;;;;;13.20;85.69;97405.75;5061198;28;45393;-61
2023/11/05 06:51:39;;;;;;;;;0.25;0.00;;;;;13.20;85.62;97422.69;5061366;28;45434;-61
2023/11/05 06:54:05;;;;;;;;;0.00;0.00;;;;;13.14;85.71;97413.38;5059962;28;69093;-61
2023/11/05 06:56:30;;;;;;;;;0.00;0.00;;;;;13.07;85.32;97411.44;5061265;28;45779;-61
2023/11/05 06:58:55;;;;;;;;;1.00;0.00;;;;;13.21;85.14;97451.13;5060617;28;56093;-61
2023/11/05 07:01:21;;;;;;;;;0.00;0.00;;;;;13.22;85.26;97457.34;5066735;28;68229;-61
2023/11/05 07:03:46;;;;;;;;;1.00;0.00;;;;;13.21;84.93;97459.16;5066312;27;57939;-61
2023/11/05 07:06:15;;;;;;;;;1.25;0.00;;;;;13.16;85.03;97450.72;5060372;28;57086;-61
2023/11/05 07:08:40;;;;;;;;;0.75;0.00;;;;;13.09;84.92;97453.16;5060094;28;46192;-61
2023/11/05 07:11:06;;;;;;;;;0.00;0.00;;;;;13.13;85.00;97461.72;5061046;28;45339;-61
2023/11/05 07:13:32;;;;;;;;;0.00;0.00;;;;;13.22;85.10;97484.97;5073139;28;45520;-61
2023/11/05 07:15:57;;;;;;;;;0.00;0.00;;;;;13.18;84.73;97486.25;5060846;28;45331;-61
2023/11/05 07:18:23;;;;;;;;;1.00;0.00;;;;;13.24;84.93;97503.56;5060740;28;46425;-61
2023/11/05 07:20:48;;;;;;;;;0.00;0.00;;;;;13.25;84.78;97513.31;5059789;28;72966;-61
2023/11/05 07:23:14;;;;;;;;;0.00;0.00;;;;;13.25;84.49;97511.47;5073016;28;45442;-61
2023/11/05 07:25:40;;;;;;;;;0.00;0.00;;;;;13.22;84.73;97516.28;5060805;28;45456;-61
2023/11/05 07:28:05;;;;;;;;;0.00;0.00;;;;;13.18;84.79;97522.88;5060656;28;46828;-61
2023/11/05 07:30:30;;;;;;;;;0.00;0.00;;;;;13.22;84.65;97518.94;5060497;28;45406;-61
2023/11/05 07:32:56;;;;;;;;;0.00;0.00;;;;;13.29;84.85;97545.00;5060068;28;59879;-61
2023/11/05 07:35:21;;;;;;;;;0.00;0.00;;;;;13.29;84.90;97544.16;5059980;28;61153;-61
2023/11/05 07:37:46;;;;;;;;;0.00;0.00;;;;;13.31;85.42;97550.19;5060336;28;52887;-61
2023/11/05 07:40:12;;;;;;;;;0.00;0.00;;;;;13.32;85.49;97554.63;5059796;28;62154;-61
2023/11/05 07:42:37;;;;;;;;;0.00;0.00;;;;;13.25;85.41;97567.72;5063548;28;45566;-61
2023/11/05 07:45:03;;;;;;;;;0.00;0.00;;;;;13.30;85.62;97572.66;5060443;27;45326;-61
2023/11/05 07:47:28;;;;;;;;;0.00;0.00;;;;;13.22;85.56;97567.16;5064460;28;46620;-61
2023/11/05 07:49:54;;;;;;;;;0.00;0.00;;;;;13.30;85.52;97597.59;5060378;28;45340;-61
2023/11/05 07:52:19;;;;;;;;;0.00;0.00;;;;;13.30;85.52;97594.06;5072564;28;45680;-61
2023/11/05 07:54:44;;;;;;;;;0.00;0.00;;;;;13.36;85.23;97608.75;5060340;27;45596;-61
2023/11/05 07:57:10;;;;;;;;;0.00;0.00;;;;;13.38;85.31;97612.13;5059686;28;60646;-61
2023/11/05 07:59:35;;;;;;;;;1.00;0.00;;;;;13.33;85.43;97616.09;5060092;28;45302;-61
2023/11/05 08:02:01;;;;;;;;;0.00;0.00;;;;;13.34;85.37;97639.19;5060342;28;45407;-61
2023/11/05 08:04:26;;;;;;;;;0.00;0.00;;;;;13.34;85.25;97633.84;5058858;28;45454;-61
2023/11/05 08:06:52;;;;;;;;;3.00;0.00;;;;;13.34;85.39;97641.03;5059870;28;47125;-61
2023/11/05 08:09:17;;;;;;;;;0.00;0.00;;;;;13.36;85.13;97654.28;5077355;28;45468;-61
2023/11/05 08:11:43;;;;;;;;;1.00;0.00;;;;;13.39;85.27;97672.75;5067843;28;56083;-61
2023/11/05 08:14:09;;;;;;;;;0.00;0.00;;;;;13.32;85.23;97665.28;5059707;28;45422;-61
2023/11/05 08:16:37;;;;;;;;;0.25;0.00;;;;;13.33;85.11;97675.03;5059825;28;47479;-61
2023/11/05 08:19:02;;;;;;;;;1.00;0.00;;;;;13.37;84.68;97688.13;5059321;28;45510;-61
2023/11/05 08:21:28;;;;;;;;;0.00;0.00;;;;;13.39;84.97;97684.31;5059406;28;45227;-61
2023/11/05 08:23:53;;;;;;;;;0.75;0.00;;;;;13.38;84.82;97704.06;5059555;28;45338;-61
2023/11/05 08:26:19;;;;;;;;;0.00;0.00;;;;;13.42;84.90;97736.78;5059725;28;45398;-61
2023/11/05 08:28:44;;;;;;;;;0.00;0.00;;;;;13.40;84.74;97736.06;5059500;28;45464;-61
2023/11/05 08:31:11;;;;;;;;;0.00;0.00;;;;;13.38;84.42;97730.00;5059925;28;45314;-61
2023/11/05 08:33:38;;;;;;;;;0.00;0.00;;;;;13.40;84.66;97744.09;5059538;28;45491;-61
2023/11/05 08:36:05;;;;;;;;;0.00;0.00;;;;;13.34;84.64;97749.03;5059505;28;46444;-61
2023/11/05 08:38:31;;;;;;;;;0.00;0.00;;;;;13.40;85.07;97776.25;5059466;28;45520;-61
2023/11/05 08:40:56;;;;;;;;;0.00;0.00;;;;;13.45;85.43;97793.59;5059792;28;45389;-61
2023/11/05 08:43:21;;;;;;;;;0.50;0.00;;;;;13.46;85.64;97795.28;5071045;28;62262;-61
2023/11/05 08:45:47;;;;;;;;;0.00;0.00;;;;;13.46;85.77;97799.81;5072470;28;46230;-61
2023/11/05 08:48:13;;;;;;;;;0.00;0.00;;;;;13.46;85.58;97810.53;5059953;27;45374;-61
2023/11/05 08:50:39;;;;;;;;;0.00;0.00;;;;;13.39;85.57;97836.19;5059580;28;45310;-61
2023/11/05 08:53:04;;;;;;;;;0.00;0.00;;;;;13.42;85.40;97843.94;5059152;28;45245;-61
2023/11/05 08:55:30;;;;;;;;;1.00;1.00;;;;;13.38;85.75;97863.94;5059181;28;45377;-61
2023/11/05 08:57:56;;;;;;;;;0.75;0.00;;;;;13.38;85.73;97875.53;5058180;28;71998;-61
2023/11/05 09:00:24;;;;;;;;;1.00;0.00;;;;;13.36;85.73;97887.38;5059403;28;45350;-61
2023/11/05 09:02:50;;;;;;;;;0.75;0.25;;;;;13.37;85.92;97902.47;5059190;28;45482;-61
2023/11/05 09:05:16;;;;;;;;;0.00;0.00;;;;;13.28;85.67;97894.22;5058934;28;45494;-61
2023/11/05 09:07:42;;;;;;;;;0.00;0.00;;;;;13.28;85.88;97917.47;5059125;28;45337;-61
2023/11/05 09:10:09;;;;;;;;;0.00;0.00;;;;;13.31;85.92;97931.47;5059128;28;45584;-61
2023/11/05 09:12:34;;;;;;;;;0.50;0.50;;;;;13.26;86.20;97930.16;5059084;28;45566;-61
2023/11/05 09:15:00;;;;;;;;;0.75;0.00;;;;;13.26;86.31;97933.69;5058805;28;46116;-61
2023/11/05 09:17:25;;;;;;;;;0.75;0.75;;;;;13.33;85.92;97952.78;5058489;28;54795;-61
2023/11/05 09:19:51;;;;;;;;;0.75;0.75;;;;;13.30;85.71;97964.59;5059084;28;45469;-61
2023/11/05 09:22:16;;;;;;;;;0.25;0.00;;;;;13.32;85.65;97970.69;5058970;28;45529;-61
2023/11/05 09:24:41;;;;;;;;;0.50;0.50;;;;;13.31;86.01;97987.72;5058654;28;46099;-61
2023/11/05 09:27:07;;;;;;;;;2.00;1.00;;;;;13.29;85.82;98002.22;5058761;28;45212;-61
2023/11/05 09:29:32;;;;;;;;;0.00;0.00;;;;;13.31;85.50;98013.66;5058149;28;60804;-61
2023/11/05 09:31:58;;;;;;;;;1.25;0.75;;;;;13.24;86.25;98021.38;5078438;28;45569;-61
2023/11/05 09:34:23;;;;;;;;;2.00;0.75;;;;;13.24;86.15;98031.25;5081968;28;66253;-61
2023/11/05 09:36:48;;;;;;;;;1.00;0.00;;;;;13.21;86.63;98035.03;5061006;28;72050;-61
2023/11/05 09:39:14;;;;;;;;;1.50;1.00;;;;;13.20;86.87;98052.09;5074738;28;45306;-61
2023/11/05 09:41:39;;;;;;;;;1.00;0.50;;;;;13.28;86.91;98063.00;5081934;27;64081;-61
2023/11/05 09:44:06;;;;;;;;;1.00;1.00;;;;;13.28;86.94;98075.53;5069867;27;46929;-61
2023/11/05 09:46:33;;;;;;;;;0.00;0.00;;;;;13.27;87.03;98085.41;5065944;28;45392;-61
2023/11/05 09:48:58;;;;;;;;;0.00;0.00;;;;;13.32;86.83;98095.75;5073869;28;45357;-61
2023/11/05 09:51:23;;;;;;;;;1.00;1.00;;;;;13.30;87.26;98101.22;5062794;27;45607;-61
2023/11/05 09:53:49;;;;;;;;;1.00;1.00;;;;;13.38;86.93;98118.50;5072992;28;45334;-61
2023/11/05 09:56:15;;;;;;;;;2.50;1.25;;;;;13.30;87.50;98111.94;5062717;27;45343;-61
2023/11/05 09:58:40;;;;;;;;;0.75;0.75;;;;;13.27;87.04;98117.53;5062249;28;45402;-61
2023/11/05 10:01:08;;;;;;;;;1.00;1.00;;;;;13.31;86.96;98127.03;5062153;28;45398;-61
2023/11/05 10:03:34;;;;;;;;;1.50;1.00;;;;;13.36;86.82;98149.94;5061834;28;46347;-61
2023/11/05 10:05:59;;;;;;;;;2.75;2.00;;;;;13.28;86.78;98147.84;5080453;28;45393;-62
2023/11/05 10:08:24;;;;;;;;;0.75;0.75;;;;;13.32;86.31;98166.25;5069448;27;45366;-61
2023/11/05 10:10:52;;;;;;;;;1.00;1.00;;;;;13.32;86.22;98174.28;5061424;28;54517;-61
2023/11/05 10:13:17;;;;;;;;;1.00;1.00;;;;;13.30;86.91;98175.38;5061768;28;45596;-61
2023/11/05 10:15:45;;;;;;;;;2.00;1.00;;;;;13.33;86.46;98186.72;5061631;28;45339;-61
2023/11/05 10:18:19;;;;;;;;;1.50;1.50;;;;;13.41;87.25;98207.50;5062051;28;45319;-61
2023/11/05 10:20:49;;;;;;;;;0.00;0.00;;;;;13.38;86.85;98206.91;5069540;28;45507;-61
2023/11/05 10:23:15;;;;;;;;;4.00;1.00;;;;;13.47;87.36;98215.03;5081588;27;46933;-61
2023/11/05 10:25:46;;;;;;;;;1.75;1.00;;;;;13.49;86.78;98226.44;5082007;27;45683;-61
2023/11/05 10:28:12;;;;;;;;;2.00;0.00;;;;;13.44;85.73;98238.56;5082081;27;45303;-61
2023/11/05 10:30:37;;;;;;;;;1.00;1.00;;;;;13.44;85.92;98242.06;5071336;28;45413;-61
2023/11/05 10:33:04;;;;;;;;;3.00;0.50;;;;;13.57;85.76;98260.66;5063582;28;45798;-61
2023/11/05 10:35:32;;;;;;;;;0.25;0.00;;;;;13.60;85.66;98271.13;5080497;28;45369;-61
2023/11/05 10:37:57;;;;;;;;;0.75;0.75;;;;;13.64;85.71;98283.28;5081848;27;45338;-61
2023/11/05 10:40:24;;;;;;;;;2.00;0.75;;;;;13.56;85.12;98284.91;5081825;27;45316;-61
2023/11/05 10:42:50;;;;;;;;;1.00;1.00;;;;;13.67;85.25;98284.88;5078843;28;46822;-61
2023/11/05 10:45:17;;;;;;;;;1.00;1.00;;;;;13.58;85.16;98283.81;5060086;28;45358;-61
2023/11/05 10:47:45;;;;;;;;;0.25;0.25;;;;;13.68;84.37;98308.88;5065508;28;45354;-61
2023/11/05 10:50:23;;;;;;;;;1.00;1.00;;;;;13.69;84.20;98307.88;5061273;28;45421;-61
2023/11/05 10:52:51;;;;;;;;;0.00;0.00;;;;;13.69;84.05;98325.78;5077393;28;47285;-61
2023/11/05 10:55:16;;;;;;;;;0.00;0.00;;;;;13.68;83.65;98329.44;5070413;27;45839;-61
2023/11/05 10:57:43;;;;;;;;;0.75;0.75;;;;;13.77;84.08;98343.94;5061249;28;45310;-61
2023/11/05 11:00:29;;;;;;;;;2.25;0.50;;;;;13.81;83.85;98358.75;5061140;28;45510;-61
2023/11/05 11:02:56;;;;;;;;;1.00;1.00;;;;;13.83;83.58;98368.41;5028975;28;47309;-61
2023/11/05 11:05:41;;;;;;;;;0.00;0.00;;;;;13.84;83.31;98356.66;5073159;28;45336;-64
2023/11/05 11:08:18;;;;;;;;;1.75;0.75;;;;;13.82;82.28;98371.22;5060800;28;45369;-64
2023/11/05 11:10:49;;;;;;;;;0.50;0.50;;;;;13.82;82.48;98380.09;5061058;28;45319;-64
2023/11/05 11:13:20;;;;;;;;;1.00;1.00;;;;;13.94;82.41;98398.81;5071609;28;47289;-64
2023/11/05 11:15:51;;;;;;;;;0.00;0.00;;;;;13.93;82.14;98395.25;5061674;27;45279;-64
2023/11/05 11:18:25;;;;;;;;;0.25;0.25;;;;;13.99;81.23;98413.53;5072758;28;45361;-63
2023/11/05 11:20:56;;;;;;;;;1.00;1.00;;;;;14.03;81.01;98424.84;5076364;28;45708;-64
2023/11/05 11:23:22;;;;;;;;;1.00;1.00;;;;;13.92;80.88;98409.69;5059051;28;47965;-64
2023/11/05 11:26:05;;;;;;;;;0.00;0.00;;;;;14.06;79.63;98441.53;5060787;28;45351;-63
2023/11/05 11:28:32;;;;;;;;;1.50;0.00;;;;;14.06;79.62;98440.69;5060772;28;45381;-63